Terminal Aerodrome Forecast
Issued by NWS

Home | Current Version | Previous Version | Text Only | Print | Product List | Glossary On
Versions: 1 2 3 4 5 6 7 8 9 10 11 12 13 14 15 16
407
FTUS45 KABQ 202335
TAFGUP
TAF
KGUP 202335Z 2100/2124 VRB05KT P6SM VCSH SCT080 BKN140
     FM210400 20011KT P6SM VCTS SCT070CB BKN120
     FM210600 20005KT P6SM VCSH SCT060 BKN100
     FM211200 23008KT P6SM FEW060 BKN120
     FM211900 25010KT P6SM VCSH BKN050
     FM212100 27010KT P6SM VCTS BKN060CB=

USA.gov is the U.S. government's official web portal to all federal, state and local government web resources and services.